sensor_id;sensor_type;location;lat;lon;timestamp;P1;durP1;ratioP1;P2;durP2;ratioP2
23171;SDS011;11754;42.664;23.594;2022-11-12T00:00:43;53.13;;;32.72;;
23171;SDS011;11754;42.664;23.594;2022-11-12T00:03:09;49.53;;;31.73;;
23171;SDS011;11754;42.664;23.594;2022-11-12T00:05:34;47.60;;;30.20;;
23171;SDS011;11754;42.664;23.594;2022-11-12T00:08:00;45.83;;;28.30;;
23171;SDS011;11754;42.664;23.594;2022-11-12T00:10:26;45.20;;;29.55;;
23171;SDS011;11754;42.664;23.594;2022-11-12T00:12:52;45.85;;;29.55;;
23171;SDS011;11754;42.664;23.594;2022-11-12T00:15:17;43.72;;;28.42;;
23171;SDS011;11754;42.664;23.594;2022-11-12T00:17:43;44.22;;;28.83;;
23171;SDS011;11754;42.664;23.594;2022-11-12T00:20:09;41.40;;;27.67;;
23171;SDS011;11754;42.664;23.594;2022-11-12T00:22:35;44.92;;;28.50;;
23171;SDS011;11754;42.664;23.594;2022-11-12T00:25:00;45.65;;;28.65;;
23171;SDS011;11754;42.664;23.594;2022-11-12T00:27:26;46.78;;;28.65;;
23171;SDS011;11754;42.664;23.594;2022-11-12T00:29:51;44.15;;;28.70;;
23171;SDS011;11754;42.664;23.594;2022-11-12T00:32:17;42.65;;;27.92;;
23171;SDS011;11754;42.664;23.594;2022-11-12T00:34:42;42.28;;;27.70;;
23171;SDS011;11754;42.664;23.594;2022-11-12T00:37:08;41.30;;;26.75;;
23171;SDS011;11754;42.664;23.594;2022-11-12T00:39:33;44.03;;;27.98;;
23171;SDS011;11754;42.664;23.594;2022-11-12T00:41:58;46.30;;;28.50;;
23171;SDS011;11754;42.664;23.594;2022-11-12T00:44:24;41.00;;;26.67;;
23171;SDS011;11754;42.664;23.594;2022-11-12T00:46:50;39.97;;;26.83;;
23171;SDS011;11754;42.664;23.594;2022-11-12T00:49:15;42.92;;;28.27;;
23171;SDS011;11754;42.664;23.594;2022-11-12T00:51:41;41.33;;;27.80;;
23171;SDS011;11754;42.664;23.594;2022-11-12T00:54:07;37.08;;;25.20;;
23171;SDS011;11754;42.664;23.594;2022-11-12T00:56:32;39.45;;;27.33;;
23171;SDS011;11754;42.664;23.594;2022-11-12T00:58:58;42.97;;;27.00;;
23171;SDS011;11754;42.664;23.594;2022-11-12T01:01:24;40.08;;;27.35;;
23171;SDS011;11754;42.664;23.594;2022-11-12T01:03:50;42.25;;;26.17;;
23171;SDS011;11754;42.664;23.594;2022-11-12T01:06:17;37.95;;;26.58;;
23171;SDS011;11754;42.664;23.594;2022-11-12T01:08:45;40.75;;;26.85;;
23171;SDS011;11754;42.664;23.594;2022-11-12T01:11:19;40.53;;;26.23;;
23171;SDS011;11754;42.664;23.594;2022-11-12T01:13:47;41.20;;;28.17;;
23171;SDS011;11754;42.664;23.594;2022-11-12T01:16:19;148.75;;;81.93;;
23171;SDS011;11754;42.664;23.594;2022-11-12T01:18:45;132.63;;;73.07;;
23171;SDS011;11754;42.664;23.594;2022-11-12T01:21:12;106.85;;;59.72;;
23171;SDS011;11754;42.664;23.594;2022-11-12T01:23:40;97.57;;;54.25;;
23171;SDS011;11754;42.664;23.594;2022-11-12T01:26:07;73.18;;;43.55;;
23171;SDS011;11754;42.664;23.594;2022-11-12T01:28:37;77.83;;;44.73;;
23171;SDS011;11754;42.664;23.594;2022-11-12T01:31:13;82.05;;;48.80;;
23171;SDS011;11754;42.664;23.594;2022-11-12T01:33:45;79.75;;;46.63;;
23171;SDS011;11754;42.664;23.594;2022-11-12T01:36:12;77.45;;;47.08;;
23171;SDS011;11754;42.664;23.594;2022-11-12T01:38:40;67.53;;;44.33;;
23171;SDS011;11754;42.664;23.594;2022-11-12T01:41:07;65.47;;;38.83;;
23171;SDS011;11754;42.664;23.594;2022-11-12T01:43:35;62.67;;;38.53;;
23171;SDS011;11754;42.664;23.594;2022-11-12T01:46:01;51.58;;;31.67;;
23171;SDS011;11754;42.664;23.594;2022-11-12T01:48:34;44.63;;;27.90;;
23171;SDS011;11754;42.664;23.594;2022-11-12T01:51:04;28.73;;;19.00;;
23171;SDS011;11754;42.664;23.594;2022-11-12T01:53:32;22.17;;;13.07;;
23171;SDS011;11754;42.664;23.594;2022-11-12T01:56:02;15.20;;;10.05;;
23171;SDS011;11754;42.664;23.594;2022-11-12T01:58:29;6.75;;;5.05;;
23171;SDS011;11754;42.664;23.594;2022-11-12T02:00:57;7.00;;;4.70;;
23171;SDS011;11754;42.664;23.594;2022-11-12T02:03:23;7.80;;;4.97;;
23171;SDS011;11754;42.664;23.594;2022-11-12T02:05:52;9.20;;;6.75;;
23171;SDS011;11754;42.664;23.594;2022-11-12T02:08:21;11.23;;;7.55;;
23171;SDS011;11754;42.664;23.594;2022-11-12T02:10:48;12.63;;;8.90;;
23171;SDS011;11754;42.664;23.594;2022-11-12T02:13:14;14.77;;;9.43;;
23171;SDS011;11754;42.664;23.594;2022-11-12T02:15:59;15.73;;;10.95;;
23171;SDS011;11754;42.664;23.594;2022-11-12T02:18:25;18.88;;;12.85;;
23171;SDS011;11754;42.664;23.594;2022-11-12T02:20:54;18.05;;;12.73;;
23171;SDS011;11754;42.664;23.594;2022-11-12T02:23:23;21.85;;;13.27;;
23171;SDS011;11754;42.664;23.594;2022-11-12T02:25:49;21.27;;;14.27;;
23171;SDS011;11754;42.664;23.594;2022-11-12T02:28:14;18.30;;;13.25;;
23171;SDS011;11754;42.664;23.594;2022-11-12T02:30:42;20.38;;;14.15;;
23171;SDS011;11754;42.664;23.594;2022-11-12T02:33:10;18.20;;;11.10;;
23171;SDS011;11754;42.664;23.594;2022-11-12T02:35:35;14.80;;;9.82;;
23171;SDS011;11754;42.664;23.594;2022-11-12T02:38:01;12.82;;;7.35;;
23171;SDS011;11754;42.664;23.594;2022-11-12T02:40:27;10.23;;;6.30;;
23171;SDS011;11754;42.664;23.594;2022-11-12T02:42:52;10.90;;;7.20;;
23171;SDS011;11754;42.664;23.594;2022-11-12T02:45:18;9.27;;;6.10;;
23171;SDS011;11754;42.664;23.594;2022-11-12T02:47:44;9.05;;;6.55;;
23171;SDS011;11754;42.664;23.594;2022-11-12T02:50:09;9.85;;;7.10;;
23171;SDS011;11754;42.664;23.594;2022-11-12T02:52:35;11.30;;;6.93;;
23171;SDS011;11754;42.664;23.594;2022-11-12T02:55:01;11.45;;;7.90;;
23171;SDS011;11754;42.664;23.594;2022-11-12T02:57:26;13.85;;;8.20;;
23171;SDS011;11754;42.664;23.594;2022-11-12T02:59:54;12.88;;;8.43;;
23171;SDS011;11754;42.664;23.594;2022-11-12T03:02:19;11.70;;;8.10;;
23171;SDS011;11754;42.664;23.594;2022-11-12T03:04:45;14.05;;;9.45;;
23171;SDS011;11754;42.664;23.594;2022-11-12T03:07:10;14.63;;;9.13;;
23171;SDS011;11754;42.664;23.594;2022-11-12T03:09:35;14.98;;;9.15;;
23171;SDS011;11754;42.664;23.594;2022-11-12T03:12:01;13.15;;;9.18;;
23171;SDS011;11754;42.664;23.594;2022-11-12T03:14:26;15.80;;;9.20;;
23171;SDS011;11754;42.664;23.594;2022-11-12T03:16:51;14.73;;;8.82;;
23171;SDS011;11754;42.664;23.594;2022-11-12T03:19:17;15.48;;;8.95;;
23171;SDS011;11754;42.664;23.594;2022-11-12T03:21:42;12.48;;;8.52;;
23171;SDS011;11754;42.664;23.594;2022-11-12T03:24:08;14.23;;;8.88;;
23171;SDS011;11754;42.664;23.594;2022-11-12T03:26:33;12.73;;;7.90;;
23171;SDS011;11754;42.664;23.594;2022-11-12T03:28:58;15.60;;;10.13;;
23171;SDS011;11754;42.664;23.594;2022-11-12T03:31:24;11.65;;;9.02;;
23171;SDS011;11754;42.664;23.594;2022-11-12T03:33:49;11.27;;;8.15;;
23171;SDS011;11754;42.664;23.594;2022-11-12T03:36:15;12.43;;;8.38;;
23171;SDS011;11754;42.664;23.594;2022-11-12T03:38:40;11.75;;;8.48;;
23171;SDS011;11754;42.664;23.594;2022-11-12T03:41:05;13.48;;;8.02;;
23171;SDS011;11754;42.664;23.594;2022-11-12T03:43:31;13.45;;;9.18;;
23171;SDS011;11754;42.664;23.594;2022-11-12T03:45:56;15.05;;;9.27;;
23171;SDS011;11754;42.664;23.594;2022-11-12T03:48:22;13.20;;;8.45;;
23171;SDS011;11754;42.664;23.594;2022-11-12T03:50:47;11.07;;;7.55;;
23171;SDS011;11754;42.664;23.594;2022-11-12T03:53:12;9.23;;;7.13;;
23171;SDS011;11754;42.664;23.594;2022-11-12T03:55:38;21.83;;;13.82;;
23171;SDS011;11754;42.664;23.594;2022-11-12T03:58:04;16.98;;;9.32;;
23171;SDS011;11754;42.664;23.594;2022-11-12T04:00:29;12.18;;;8.90;;
23171;SDS011;11754;42.664;23.594;2022-11-12T04:02:55;8.93;;;6.15;;
23171;SDS011;11754;42.664;23.594;2022-11-12T04:05:21;20.92;;;14.27;;
23171;SDS011;11754;42.664;23.594;2022-11-12T04:08:08;14.20;;;7.78;;
23171;SDS011;11754;42.664;23.594;2022-11-12T04:10:57;13.02;;;7.55;;
23171;SDS011;11754;42.664;23.594;2022-11-12T04:13:23;12.18;;;7.95;;
23171;SDS011;11754;42.664;23.594;2022-11-12T04:15:58;15.87;;;8.60;;
23171;SDS011;11754;42.664;23.594;2022-11-12T04:18:45;18.00;;;10.05;;
23171;SDS011;11754;42.664;23.594;2022-11-12T04:21:32;15.95;;;10.35;;
23171;SDS011;11754;42.664;23.594;2022-11-12T04:24:34;15.32;;;10.43;;
23171;SDS011;11754;42.664;23.594;2022-11-12T04:27:24;22.88;;;10.88;;
23171;SDS011;11754;42.664;23.594;2022-11-12T04:29:50;21.55;;;12.50;;
23171;SDS011;11754;42.664;23.594;2022-11-12T04:32:35;22.52;;;14.50;;
23171;SDS011;11754;42.664;23.594;2022-11-12T04:35:02;21.58;;;14.20;;
23171;SDS011;11754;42.664;23.594;2022-11-12T04:37:29;22.00;;;14.40;;
23171;SDS011;11754;42.664;23.594;2022-11-12T04:40:12;19.48;;;13.68;;
23171;SDS011;11754;42.664;23.594;2022-11-12T04:43:01;19.77;;;13.38;;
23171;SDS011;11754;42.664;23.594;2022-11-12T04:45:46;19.45;;;12.98;;
23171;SDS011;11754;42.664;23.594;2022-11-12T04:48:14;18.23;;;11.95;;
23171;SDS011;11754;42.664;23.594;2022-11-12T04:50:40;16.88;;;11.48;;
23171;SDS011;11754;42.664;23.594;2022-11-12T04:53:07;17.40;;;11.45;;
23171;SDS011;11754;42.664;23.594;2022-11-12T04:55:32;22.30;;;12.07;;
23171;SDS011;11754;42.664;23.594;2022-11-12T04:57:58;20.38;;;13.90;;
23171;SDS011;11754;42.664;23.594;2022-11-12T05:00:23;23.25;;;14.52;;
23171;SDS011;11754;42.664;23.594;2022-11-12T05:02:49;20.40;;;13.30;;
23171;SDS011;11754;42.664;23.594;2022-11-12T05:05:15;16.23;;;12.23;;
23171;SDS011;11754;42.664;23.594;2022-11-12T05:07:40;19.52;;;13.35;;
23171;SDS011;11754;42.664;23.594;2022-11-12T05:10:06;23.65;;;12.40;;
23171;SDS011;11754;42.664;23.594;2022-11-12T05:12:31;18.02;;;11.85;;
23171;SDS011;11754;42.664;23.594;2022-11-12T05:14:57;19.00;;;11.82;;
23171;SDS011;11754;42.664;23.594;2022-11-12T05:17:22;22.08;;;12.30;;
23171;SDS011;11754;42.664;23.594;2022-11-12T05:19:47;18.77;;;12.40;;
23171;SDS011;11754;42.664;23.594;2022-11-12T05:22:13;21.75;;;12.50;;
23171;SDS011;11754;42.664;23.594;2022-11-12T05:24:39;25.90;;;13.10;;
23171;SDS011;11754;42.664;23.594;2022-11-12T05:27:10;22.52;;;13.48;;
23171;SDS011;11754;42.664;23.594;2022-11-12T05:29:38;34.22;;;18.73;;
23171;SDS011;11754;42.664;23.594;2022-11-12T05:32:04;35.83;;;19.00;;
23171;SDS011;11754;42.664;23.594;2022-11-12T05:34:31;31.08;;;16.92;;
23171;SDS011;11754;42.664;23.594;2022-11-12T05:36:57;29.33;;;15.90;;
23171;SDS011;11754;42.664;23.594;2022-11-12T05:39:23;26.75;;;15.40;;
23171;SDS011;11754;42.664;23.594;2022-11-12T05:41:49;40.00;;;23.80;;
23171;SDS011;11754;42.664;23.594;2022-11-12T05:44:15;27.27;;;15.75;;
23171;SDS011;11754;42.664;23.594;2022-11-12T05:46:40;26.92;;;14.57;;
23171;SDS011;11754;42.664;23.594;2022-11-12T05:49:06;21.23;;;13.93;;
23171;SDS011;11754;42.664;23.594;2022-11-12T05:51:31;20.83;;;13.10;;
23171;SDS011;11754;42.664;23.594;2022-11-12T05:53:57;21.10;;;13.10;;
23171;SDS011;11754;42.664;23.594;2022-11-12T05:56:22;18.25;;;11.38;;
23171;SDS011;11754;42.664;23.594;2022-11-12T05:58:48;22.13;;;12.00;;
23171;SDS011;11754;42.664;23.594;2022-11-12T06:01:13;23.00;;;12.52;;
23171;SDS011;11754;42.664;23.594;2022-11-12T06:03:39;24.13;;;12.85;;
23171;SDS011;11754;42.664;23.594;2022-11-12T06:06:04;20.83;;;13.75;;
23171;SDS011;11754;42.664;23.594;2022-11-12T06:08:29;24.77;;;14.68;;
23171;SDS011;11754;42.664;23.594;2022-11-12T06:10:55;20.13;;;13.73;;
23171;SDS011;11754;42.664;23.594;2022-11-12T06:13:21;20.00;;;12.85;;
23171;SDS011;11754;42.664;23.594;2022-11-12T06:15:48;23.83;;;15.25;;
23171;SDS011;11754;42.664;23.594;2022-11-12T06:18:13;27.92;;;15.27;;
23171;SDS011;11754;42.664;23.594;2022-11-12T06:20:39;28.92;;;15.70;;
23171;SDS011;11754;42.664;23.594;2022-11-12T06:23:05;23.85;;;15.13;;
23171;SDS011;11754;42.664;23.594;2022-11-12T06:25:30;28.27;;;19.25;;
23171;SDS011;11754;42.664;23.594;2022-11-12T06:27:56;28.17;;;18.15;;
23171;SDS011;11754;42.664;23.594;2022-11-12T06:30:21;27.63;;;17.08;;
23171;SDS011;11754;42.664;23.594;2022-11-12T06:32:47;19.10;;;13.05;;
23171;SDS011;11754;42.664;23.594;2022-11-12T06:35:13;18.70;;;11.73;;
23171;SDS011;11754;42.664;23.594;2022-11-12T06:37:39;20.20;;;11.13;;
23171;SDS011;11754;42.664;23.594;2022-11-12T06:40:05;18.25;;;11.40;;
23171;SDS011;11754;42.664;23.594;2022-11-12T06:42:31;20.33;;;13.73;;
23171;SDS011;11754;42.664;23.594;2022-11-12T06:44:57;22.48;;;12.85;;
23171;SDS011;11754;42.664;23.594;2022-11-12T06:47:22;24.15;;;15.52;;
23171;SDS011;11754;42.664;23.594;2022-11-12T06:49:47;25.23;;;16.95;;
23171;SDS011;11754;42.664;23.594;2022-11-12T06:52:14;19.23;;;13.23;;
23171;SDS011;11754;42.664;23.594;2022-11-12T06:54:40;19.73;;;13.02;;
23171;SDS011;11754;42.664;23.594;2022-11-12T06:57:05;22.27;;;14.20;;
23171;SDS011;11754;42.664;23.594;2022-11-12T06:59:31;22.20;;;12.60;;
23171;SDS011;11754;42.664;23.594;2022-11-12T07:01:56;17.60;;;11.50;;
23171;SDS011;11754;42.664;23.594;2022-11-12T07:04:22;20.80;;;13.05;;
23171;SDS011;11754;42.664;23.594;2022-11-12T07:06:48;22.88;;;13.13;;
23171;SDS011;11754;42.664;23.594;2022-11-12T07:09:13;18.13;;;12.35;;
23171;SDS011;11754;42.664;23.594;2022-11-12T07:11:39;22.42;;;11.55;;
23171;SDS011;11754;42.664;23.594;2022-11-12T07:14:04;21.02;;;13.70;;
23171;SDS011;11754;42.664;23.594;2022-11-12T07:16:31;18.17;;;12.52;;
23171;SDS011;11754;42.664;23.594;2022-11-12T07:18:56;16.90;;;12.40;;
23171;SDS011;11754;42.664;23.594;2022-11-12T07:21:21;19.35;;;12.32;;
23171;SDS011;11754;42.664;23.594;2022-11-12T07:23:47;19.67;;;11.93;;
23171;SDS011;11754;42.664;23.594;2022-11-12T07:26:16;16.42;;;11.20;;
23171;SDS011;11754;42.664;23.594;2022-11-12T07:28:53;21.70;;;10.68;;
23171;SDS011;11754;42.664;23.594;2022-11-12T07:31:22;11.93;;;8.77;;
23171;SDS011;11754;42.664;23.594;2022-11-12T07:33:47;16.15;;;9.65;;
23171;SDS011;11754;42.664;23.594;2022-11-12T07:36:14;12.60;;;9.10;;
23171;SDS011;11754;42.664;23.594;2022-11-12T07:38:41;14.43;;;9.35;;
23171;SDS011;11754;42.664;23.594;2022-11-12T07:41:09;12.63;;;9.55;;
23171;SDS011;11754;42.664;23.594;2022-11-12T07:43:37;16.30;;;9.73;;
23171;SDS011;11754;42.664;23.594;2022-11-12T07:46:04;12.10;;;8.48;;
23171;SDS011;11754;42.664;23.594;2022-11-12T07:48:32;11.75;;;8.48;;
23171;SDS011;11754;42.664;23.594;2022-11-12T07:51:02;11.23;;;8.30;;
23171;SDS011;11754;42.664;23.594;2022-11-12T07:53:48;14.40;;;8.38;;
23171;SDS011;11754;42.664;23.594;2022-11-12T07:56:18;11.63;;;8.40;;
23171;SDS011;11754;42.664;23.594;2022-11-12T07:58:45;13.73;;;9.60;;
23171;SDS011;11754;42.664;23.594;2022-11-12T08:01:18;15.93;;;10.82;;
23171;SDS011;11754;42.664;23.594;2022-11-12T08:03:46;15.23;;;10.80;;
23171;SDS011;11754;42.664;23.594;2022-11-12T08:06:12;15.70;;;12.05;;
23171;SDS011;11754;42.664;23.594;2022-11-12T08:08:37;14.57;;;10.77;;
23171;SDS011;11754;42.664;23.594;2022-11-12T08:11:02;17.95;;;11.60;;
23171;SDS011;11754;42.664;23.594;2022-11-12T08:13:28;17.30;;;11.68;;
23171;SDS011;11754;42.664;23.594;2022-11-12T08:15:55;10.60;;;8.60;;
23171;SDS011;11754;42.664;23.594;2022-11-12T08:18:21;12.23;;;9.38;;
23171;SDS011;11754;42.664;23.594;2022-11-12T08:20:47;16.23;;;9.15;;
23171;SDS011;11754;42.664;23.594;2022-11-12T08:23:12;11.38;;;8.60;;
23171;SDS011;11754;42.664;23.594;2022-11-12T08:25:37;10.32;;;8.10;;
23171;SDS011;11754;42.664;23.594;2022-11-12T08:28:03;13.43;;;8.32;;
23171;SDS011;11754;42.664;23.594;2022-11-12T08:30:29;14.32;;;10.63;;
23171;SDS011;11754;42.664;23.594;2022-11-12T08:32:58;12.45;;;9.70;;
23171;SDS011;11754;42.664;23.594;2022-11-12T08:35:25;14.18;;;9.00;;
23171;SDS011;11754;42.664;23.594;2022-11-12T08:38:03;16.10;;;9.27;;
23171;SDS011;11754;42.664;23.594;2022-11-12T08:40:34;12.50;;;9.05;;
23171;SDS011;11754;42.664;23.594;2022-11-12T08:43:07;15.38;;;10.02;;
23171;SDS011;11754;42.664;23.594;2022-11-12T08:45:35;14.55;;;9.60;;
23171;SDS011;11754;42.664;23.594;2022-11-12T08:48:03;12.82;;;8.65;;
23171;SDS011;11754;42.664;23.594;2022-11-12T08:50:33;13.07;;;8.18;;
23171;SDS011;11754;42.664;23.594;2022-11-12T08:53:00;25.58;;;14.02;;
23171;SDS011;11754;42.664;23.594;2022-11-12T08:55:26;20.00;;;10.82;;
23171;SDS011;11754;42.664;23.594;2022-11-12T08:57:53;12.55;;;8.00;;
23171;SDS011;11754;42.664;23.594;2022-11-12T09:00:19;9.80;;;7.70;;
23171;SDS011;11754;42.664;23.594;2022-11-12T09:02:44;6.95;;;5.65;;
23171;SDS011;11754;42.664;23.594;2022-11-12T09:05:10;8.25;;;5.80;;
23171;SDS011;11754;42.664;23.594;2022-11-12T09:07:35;11.10;;;6.80;;
23171;SDS011;11754;42.664;23.594;2022-11-12T09:10:00;9.38;;;5.40;;
23171;SDS011;11754;42.664;23.594;2022-11-12T09:12:26;8.00;;;5.47;;
23171;SDS011;11754;42.664;23.594;2022-11-12T09:14:52;10.18;;;7.78;;
23171;SDS011;11754;42.664;23.594;2022-11-12T09:17:17;7.78;;;4.18;;
23171;SDS011;11754;42.664;23.594;2022-11-12T09:19:42;10.93;;;7.05;;
23171;SDS011;11754;42.664;23.594;2022-11-12T09:22:08;10.57;;;6.63;;
23171;SDS011;11754;42.664;23.594;2022-11-12T09:24:33;9.57;;;5.60;;
23171;SDS011;11754;42.664;23.594;2022-11-12T09:26:59;22.67;;;11.30;;
23171;SDS011;11754;42.664;23.594;2022-11-12T09:29:24;13.80;;;6.25;;
23171;SDS011;11754;42.664;23.594;2022-11-12T09:31:49;10.07;;;6.57;;
23171;SDS011;11754;42.664;23.594;2022-11-12T09:34:15;8.10;;;5.20;;
23171;SDS011;11754;42.664;23.594;2022-11-12T09:36:40;11.35;;;7.45;;
23171;SDS011;11754;42.664;23.594;2022-11-12T09:39:06;14.30;;;7.40;;
23171;SDS011;11754;42.664;23.594;2022-11-12T09:41:31;10.20;;;5.32;;
23171;SDS011;11754;42.664;23.594;2022-11-12T09:44:05;9.10;;;5.15;;
23171;SDS011;11754;42.664;23.594;2022-11-12T09:46:51;6.90;;;4.38;;
23171;SDS011;11754;42.664;23.594;2022-11-12T09:49:24;8.32;;;5.25;;
23171;SDS011;11754;42.664;23.594;2022-11-12T09:52:05;6.57;;;4.60;;
23171;SDS011;11754;42.664;23.594;2022-11-12T09:54:40;5.85;;;4.18;;
23171;SDS011;11754;42.664;23.594;2022-11-12T09:57:15;7.47;;;4.85;;
23171;SDS011;11754;42.664;23.594;2022-11-12T09:59:41;7.40;;;4.35;;
23171;SDS011;11754;42.664;23.594;2022-11-12T10:10:01;15.35;;;6.63;;
23171;SDS011;11754;42.664;23.594;2022-11-12T10:18:43;15.68;;;7.90;;
23171;SDS011;11754;42.664;23.594;2022-11-12T10:23:57;6.50;;;4.13;;
23171;SDS011;11754;42.664;23.594;2022-11-12T10:26:25;6.03;;;3.90;;
23171;SDS011;11754;42.664;23.594;2022-11-12T10:31:36;18.33;;;11.80;;
23171;SDS011;11754;42.664;23.594;2022-11-12T10:36:37;12.25;;;7.20;;
23171;SDS011;11754;42.664;23.594;2022-11-12T10:39:06;14.35;;;10.15;;
23171;SDS011;11754;42.664;23.594;2022-11-12T10:41:32;11.13;;;8.65;;
23171;SDS011;11754;42.664;23.594;2022-11-12T10:48:53;5.95;;;3.17;;
23171;SDS011;11754;42.664;23.594;2022-11-12T10:51:23;6.10;;;3.20;;
23171;SDS011;11754;42.664;23.594;2022-11-12T10:53:54;5.50;;;3.38;;
23171;SDS011;11754;42.664;23.594;2022-11-12T10:56:29;4.90;;;3.30;;
23171;SDS011;11754;42.664;23.594;2022-11-12T10:59:08;4.30;;;3.10;;
23171;SDS011;11754;42.664;23.594;2022-11-12T11:01:38;14.10;;;6.78;;
23171;SDS011;11754;42.664;23.594;2022-11-12T11:04:03;11.05;;;5.05;;
23171;SDS011;11754;42.664;23.594;2022-11-12T11:06:38;5.15;;;3.35;;
23171;SDS011;11754;42.664;23.594;2022-11-12T11:09:14;5.32;;;2.35;;
23171;SDS011;11754;42.664;23.594;2022-11-12T11:11:51;4.15;;;1.95;;
23171;SDS011;11754;42.664;23.594;2022-11-12T11:19:34;2.00;;;1.55;;
23171;SDS011;11754;42.664;23.594;2022-11-12T11:22:09;5.47;;;3.55;;
23171;SDS011;11754;42.664;23.594;2022-11-12T11:24:56;4.38;;;2.60;;
23171;SDS011;11754;42.664;23.594;2022-11-12T11:27:29;5.47;;;2.73;;
23171;SDS011;11754;42.664;23.594;2022-11-12T11:30:07;7.68;;;5.57;;
23171;SDS011;11754;42.664;23.594;2022-11-12T11:38:31;4.90;;;2.92;;
23171;SDS011;11754;42.664;23.594;2022-11-12T11:49:24;9.40;;;3.50;;
23171;SDS011;11754;42.664;23.594;2022-11-12T11:52:07;4.22;;;3.00;;
23171;SDS011;11754;42.664;23.594;2022-11-12T11:54:57;2.92;;;2.33;;
23171;SDS011;11754;42.664;23.594;2022-11-12T11:57:35;4.75;;;2.88;;
23171;SDS011;11754;42.664;23.594;2022-11-12T12:02:57;5.32;;;3.58;;
23171;SDS011;11754;42.664;23.594;2022-11-12T12:14:33;4.40;;;3.08;;
23171;SDS011;11754;42.664;23.594;2022-11-12T12:21:57;6.07;;;3.90;;
23171;SDS011;11754;42.664;23.594;2022-11-12T12:27:02;6.80;;;4.55;;
23171;SDS011;11754;42.664;23.594;2022-11-12T12:29:55;5.20;;;3.70;;
23171;SDS011;11754;42.664;23.594;2022-11-12T12:32:35;9.35;;;3.85;;
23171;SDS011;11754;42.664;23.594;2022-11-12T12:35:21;6.63;;;4.05;;
23171;SDS011;11754;42.664;23.594;2022-11-12T12:40:42;5.47;;;3.92;;
23171;SDS011;11754;42.664;23.594;2022-11-12T12:43:27;7.70;;;3.90;;
23171;SDS011;11754;42.664;23.594;2022-11-12T12:45:59;5.30;;;4.05;;
23171;SDS011;11754;42.664;23.594;2022-11-12T12:48:28;11.10;;;5.13;;
23171;SDS011;11754;42.664;23.594;2022-11-12T12:50:58;16.00;;;9.98;;
23171;SDS011;11754;42.664;23.594;2022-11-12T12:55:52;8.52;;;5.75;;
23171;SDS011;11754;42.664;23.594;2022-11-12T12:58:25;7.88;;;4.47;;
23171;SDS011;11754;42.664;23.594;2022-11-12T13:06:22;8.85;;;6.10;;
23171;SDS011;11754;42.664;23.594;2022-11-12T13:08:48;10.20;;;6.90;;
23171;SDS011;11754;42.664;23.594;2022-11-12T13:17:43;7.90;;;5.30;;
23171;SDS011;11754;42.664;23.594;2022-11-12T13:48:38;9.80;;;7.82;;
23171;SDS011;11754;42.664;23.594;2022-11-12T13:51:52;11.55;;;8.88;;
23171;SDS011;11754;42.664;23.594;2022-11-12T13:57:23;20.45;;;13.23;;
23171;SDS011;11754;42.664;23.594;2022-11-12T14:02:42;11.68;;;7.40;;
23171;SDS011;11754;42.664;23.594;2022-11-12T14:05:12;9.32;;;6.68;;
23171;SDS011;11754;42.664;23.594;2022-11-12T14:13:21;21.10;;;13.63;;
23171;SDS011;11754;42.664;23.594;2022-11-12T14:21:36;13.52;;;9.82;;
23171;SDS011;11754;42.664;23.594;2022-11-12T14:24:02;19.45;;;12.90;;
23171;SDS011;11754;42.664;23.594;2022-11-12T14:26:46;17.58;;;11.98;;
23171;SDS011;11754;42.664;23.594;2022-11-12T14:29:16;19.15;;;11.45;;
23171;SDS011;11754;42.664;23.594;2022-11-12T14:31:42;14.23;;;8.43;;
23171;SDS011;11754;42.664;23.594;2022-11-12T14:34:17;17.23;;;10.00;;
23171;SDS011;11754;42.664;23.594;2022-11-12T14:36:50;17.23;;;10.88;;
23171;SDS011;11754;42.664;23.594;2022-11-12T14:39:19;29.83;;;16.67;;
23171;SDS011;11754;42.664;23.594;2022-11-12T14:41:46;19.98;;;11.32;;
23171;SDS011;11754;42.664;23.594;2022-11-12T14:44:32;18.90;;;11.07;;
23171;SDS011;11754;42.664;23.594;2022-11-12T14:46:59;19.00;;;10.57;;
23171;SDS011;11754;42.664;23.594;2022-11-12T14:51:59;40.35;;;26.40;;
23171;SDS011;11754;42.664;23.594;2022-11-12T14:54:33;33.42;;;20.67;;
23171;SDS011;11754;42.664;23.594;2022-11-12T14:57:02;94.85;;;50.90;;
23171;SDS011;11754;42.664;23.594;2022-11-12T14:59:28;169.32;;;77.13;;
23171;SDS011;11754;42.664;23.594;2022-11-12T15:04:42;9.23;;;6.20;;
23171;SDS011;11754;42.664;23.594;2022-11-12T15:13:02;7.05;;;6.10;;
23171;SDS011;11754;42.664;23.594;2022-11-12T15:15:34;7.43;;;6.72;;
23171;SDS011;11754;42.664;23.594;2022-11-12T15:18:04;10.60;;;7.07;;
23171;SDS011;11754;42.664;23.594;2022-11-12T15:23:31;6.75;;;5.13;;
23171;SDS011;11754;42.664;23.594;2022-11-12T15:25:57;10.80;;;7.72;;
23171;SDS011;11754;42.664;23.594;2022-11-12T15:28:24;9.93;;;7.43;;
23171;SDS011;11754;42.664;23.594;2022-11-12T15:31:01;14.85;;;9.57;;
23171;SDS011;11754;42.664;23.594;2022-11-12T15:33:31;15.05;;;8.98;;
23171;SDS011;11754;42.664;23.594;2022-11-12T15:35:57;11.85;;;9.05;;
23171;SDS011;11754;42.664;23.594;2022-11-12T15:38:33;8.82;;;5.65;;
23171;SDS011;11754;42.664;23.594;2022-11-12T15:41:00;7.63;;;6.13;;
23171;SDS011;11754;42.664;23.594;2022-11-12T15:43:27;9.68;;;7.60;;
23171;SDS011;11754;42.664;23.594;2022-11-12T15:45:56;7.57;;;5.40;;
23171;SDS011;11754;42.664;23.594;2022-11-12T15:48:21;7.28;;;5.57;;
23171;SDS011;11754;42.664;23.594;2022-11-12T15:50:47;9.00;;;5.97;;
23171;SDS011;11754;42.664;23.594;2022-11-12T15:53:17;6.75;;;4.43;;
23171;SDS011;11754;42.664;23.594;2022-11-12T15:55:43;8.43;;;5.60;;
23171;SDS011;11754;42.664;23.594;2022-11-12T15:58:19;17.70;;;10.23;;
23171;SDS011;11754;42.664;23.594;2022-11-12T16:00:54;8.60;;;5.97;;
23171;SDS011;11754;42.664;23.594;2022-11-12T16:03:20;19.63;;;10.07;;
23171;SDS011;11754;42.664;23.594;2022-11-12T16:05:46;24.52;;;14.27;;
23171;SDS011;11754;42.664;23.594;2022-11-12T16:08:12;31.67;;;20.17;;
23171;SDS011;11754;42.664;23.594;2022-11-12T16:10:38;16.45;;;11.00;;
23171;SDS011;11754;42.664;23.594;2022-11-12T16:13:05;11.70;;;6.57;;
23171;SDS011;11754;42.664;23.594;2022-11-12T16:15:35;27.20;;;17.52;;
23171;SDS011;11754;42.664;23.594;2022-11-12T16:18:01;21.08;;;13.70;;
23171;SDS011;11754;42.664;23.594;2022-11-12T16:20:31;37.88;;;24.00;;
23171;SDS011;11754;42.664;23.594;2022-11-12T16:22:57;39.95;;;26.98;;
23171;SDS011;11754;42.664;23.594;2022-11-12T16:25:24;30.23;;;21.13;;
23171;SDS011;11754;42.664;23.594;2022-11-12T16:27:53;33.35;;;21.77;;
23171;SDS011;11754;42.664;23.594;2022-11-12T16:30:21;23.90;;;18.13;;
23171;SDS011;11754;42.664;23.594;2022-11-12T16:32:48;12.95;;;9.30;;
23171;SDS011;11754;42.664;23.594;2022-11-12T16:35:14;16.65;;;12.35;;
23171;SDS011;11754;42.664;23.594;2022-11-12T16:37:41;21.50;;;13.85;;
23171;SDS011;11754;42.664;23.594;2022-11-12T16:40:21;33.10;;;19.67;;
23171;SDS011;11754;42.664;23.594;2022-11-12T16:42:48;33.53;;;22.50;;
23171;SDS011;11754;42.664;23.594;2022-11-12T16:45:14;62.28;;;33.47;;
23171;SDS011;11754;42.664;23.594;2022-11-12T16:47:45;89.03;;;40.30;;
23171;SDS011;11754;42.664;23.594;2022-11-12T16:50:13;31.77;;;20.23;;